Terminal Aerodrome Forecast
Issued by NWS Shreveport, LA

Home | Current Version | Previous Version | Text Only | Print | Product List | Glossary On
Versions: 1 2 3 4 5 6 7 8 9 10 11 12 13 14 15 16 17 18
000
FTUS44 KSHV 051831 AAB
TAFSHV
TAF AMD
KSHV 051831Z 0519/0618 23008KT P6SM VCTS SCT035CB SCT100 SCT250
      TEMPO 0519/0523 VRB15G30KT 2SM TSRA BR BKN035CB
     FM052300 23008KT P6SM VCTS SCT040CB BKN250
     FM060100 19005KT P6SM FEW050 SCT250
      TEMPO 0610/0614 5SM BR BKN008
     FM061400 21008KT P6SM BKN010
     FM061600 21010KT P6SM SCT030=

USA.gov is the U.S. government's official web portal to all federal, state and local government web resources and services.